Gravenhurst, Canada
Current Conditions -  °F | °C
As of 9:29 PM on Thursday 20 Nov 2014 (Local Time) from CYQA Reporting Station
Light Snow Light Snow  
Wind Chill: 14°   Ceiling: 1500
Heat Index: 21°   Visibility: 3mi
Dew Point: 21°   Wind: 6mph
Humidity: 100%   Direction: 200°SSW
Pressure: 29.81"   Gusts: NA
Location:  44.92°N, 79.37°W
Report Text: CYQA 210229Z AUTO 20005KT 3SM -SN BKN015 OVC019 M06/M06 A2981 RMK SLP112
Loading
Personal Weather Stations






























Interactive Weather Map New forecast layout! Learn more

10-Day Weather Forecast

Advertisements
Track Severe Weather on mobile